sensor_id;sensor_type;location;lat;lon;timestamp;temperature;humidity
780;DHT22;373;49.342;8.146;2022-10-23T01:28:27;15.20;99.90
780;DHT22;373;49.342;8.146;2022-10-23T01:30:56;15.00;99.90
780;DHT22;373;49.342;8.146;2022-10-23T01:33:34;15.00;99.90
780;DHT22;373;49.342;8.146;2022-10-23T01:36:07;15.40;99.90
780;DHT22;373;49.342;8.146;2022-10-23T01:38:39;15.40;99.90
780;DHT22;373;49.342;8.146;2022-10-23T01:41:22;15.40;99.90
780;DHT22;373;49.342;8.146;2022-10-23T01:43:54;15.30;99.90
780;DHT22;373;49.342;8.146;2022-10-23T01:46:29;15.50;99.90
780;DHT22;373;49.342;8.146;2022-10-23T01:48:59;15.60;99.90
780;DHT22;373;49.342;8.146;2022-10-23T01:51:30;15.40;99.90
780;DHT22;373;49.342;8.146;2022-10-23T01:54:06;15.50;99.90
780;DHT22;373;49.342;8.146;2022-10-23T01:56:37;15.40;99.90
780;DHT22;373;49.342;8.146;2022-10-23T01:59:09;15.50;99.90
780;DHT22;373;49.342;8.146;2022-10-23T02:01:41;15.60;99.90
780;DHT22;373;49.342;8.146;2022-10-23T02:04:11;15.40;99.90
780;DHT22;373;49.342;8.146;2022-10-23T02:06:40;15.30;99.90
780;DHT22;373;49.342;8.146;2022-10-23T02:09:07;15.00;99.90
780;DHT22;373;49.342;8.146;2022-10-23T02:11:38;14.70;99.90
780;DHT22;373;49.342;8.146;2022-10-23T02:14:15;14.60;99.90
780;DHT22;373;49.342;8.146;2022-10-23T02:16:48;14.60;99.90
780;DHT22;373;49.342;8.146;2022-10-23T02:19:23;14.50;99.90
780;DHT22;373;49.342;8.146;2022-10-23T02:22:06;14.60;99.90
780;DHT22;373;49.342;8.146;2022-10-23T02:24:37;14.90;99.90
780;DHT22;373;49.342;8.146;2022-10-23T02:27:10;15.00;99.90
780;DHT22;373;49.342;8.146;2022-10-23T02:29:43;15.10;99.90
780;DHT22;373;49.342;8.146;2022-10-23T02:32:13;15.10;99.90
780;DHT22;373;49.342;8.146;2022-10-23T02:34:41;14.50;99.90
780;DHT22;373;49.342;8.146;2022-10-23T02:37:09;14.80;99.90
780;DHT22;373;49.342;8.146;2022-10-23T02:39:36;14.70;99.90
780;DHT22;373;49.342;8.146;2022-10-23T02:42:09;15.00;99.90
780;DHT22;373;49.342;8.146;2022-10-23T02:44:51;15.00;99.90
780;DHT22;373;49.342;8.146;2022-10-23T02:47:31;15.10;99.90
780;DHT22;373;49.342;8.146;2022-10-23T02:50:05;14.90;99.90
780;DHT22;373;49.342;8.146;2022-10-23T02:52:40;14.80;99.90
780;DHT22;373;49.342;8.146;2022-10-23T02:55:23;15.00;99.90
780;DHT22;373;49.342;8.146;2022-10-23T02:57:54;15.10;99.90
780;DHT22;373;49.342;8.146;2022-10-23T03:00:24;15.00;99.90
780;DHT22;373;49.342;8.146;2022-10-23T03:02:54;14.90;99.90
780;DHT22;373;49.342;8.146;2022-10-23T03:05:29;15.10;99.90
780;DHT22;373;49.342;8.146;2022-10-23T03:07:57;15.20;99.90
780;DHT22;373;49.342;8.146;2022-10-23T03:10:24;15.30;99.90
780;DHT22;373;49.342;8.146;2022-10-23T03:12:52;15.40;99.90
780;DHT22;373;49.342;8.146;2022-10-23T03:15:19;15.30;99.90
780;DHT22;373;49.342;8.146;2022-10-23T03:17:49;15.50;99.90
780;DHT22;373;49.342;8.146;2022-10-23T03:20:17;15.20;99.90
780;DHT22;373;49.342;8.146;2022-10-23T03:22:44;15.30;99.90
780;DHT22;373;49.342;8.146;2022-10-23T03:25:12;15.10;99.90
780;DHT22;373;49.342;8.146;2022-10-23T03:27:39;15.40;99.90
780;DHT22;373;49.342;8.146;2022-10-23T03:30:09;15.20;99.90
780;DHT22;373;49.342;8.146;2022-10-23T03:32:38;15.40;99.90
780;DHT22;373;49.342;8.146;2022-10-23T03:35:07;15.50;99.90
780;DHT22;373;49.342;8.146;2022-10-23T03:37:34;15.50;99.90
780;DHT22;373;49.342;8.146;2022-10-23T03:40:02;15.30;99.90
780;DHT22;373;49.342;8.146;2022-10-23T03:42:33;14.90;99.90
780;DHT22;373;49.342;8.146;2022-10-23T03:45:00;15.00;99.90
780;DHT22;373;49.342;8.146;2022-10-23T03:47:27;15.00;99.90
780;DHT22;373;49.342;8.146;2022-10-23T03:49:56;14.80;99.90
780;DHT22;373;49.342;8.146;2022-10-23T03:52:25;14.60;99.90
780;DHT22;373;49.342;8.146;2022-10-23T03:54:52;14.70;99.90
780;DHT22;373;49.342;8.146;2022-10-23T03:57:19;14.30;99.90
780;DHT22;373;49.342;8.146;2022-10-23T03:59:46;14.40;99.90
780;DHT22;373;49.342;8.146;2022-10-23T04:02:15;14.70;99.90
780;DHT22;373;49.342;8.146;2022-10-23T04:04:42;14.80;99.90
780;DHT22;373;49.342;8.146;2022-10-23T04:07:09;14.50;99.90
780;DHT22;373;49.342;8.146;2022-10-23T04:09:38;14.60;99.90
780;DHT22;373;49.342;8.146;2022-10-23T04:12:06;14.50;99.90
780;DHT22;373;49.342;8.146;2022-10-23T04:14:34;14.60;99.90
780;DHT22;373;49.342;8.146;2022-10-23T04:17:02;14.80;99.90
780;DHT22;373;49.342;8.146;2022-10-23T04:19:29;14.90;99.90
780;DHT22;373;49.342;8.146;2022-10-23T04:21:56;15.10;99.90
780;DHT22;373;49.342;8.146;2022-10-23T04:24:24;15.00;99.90
780;DHT22;373;49.342;8.146;2022-10-23T04:26:52;15.20;99.90
780;DHT22;373;49.342;8.146;2022-10-23T04:29:20;15.10;99.90
780;DHT22;373;49.342;8.146;2022-10-23T04:31:49;15.20;99.90
780;DHT22;373;49.342;8.146;2022-10-23T04:34:17;15.40;99.90
780;DHT22;373;49.342;8.146;2022-10-23T04:36:44;15.20;99.90
780;DHT22;373;49.342;8.146;2022-10-23T04:39:11;15.50;99.90
780;DHT22;373;49.342;8.146;2022-10-23T04:41:39;15.50;99.90
780;DHT22;373;49.342;8.146;2022-10-23T04:44:08;15.00;99.90
780;DHT22;373;49.342;8.146;2022-10-23T04:46:38;15.10;99.90
780;DHT22;373;49.342;8.146;2022-10-23T04:49:05;15.20;99.90
780;DHT22;373;49.342;8.146;2022-10-23T04:52:08;15.20;99.90
780;DHT22;373;49.342;8.146;2022-10-23T04:54:41;15.20;99.90
780;DHT22;373;49.342;8.146;2022-10-23T04:57:25;15.20;99.90
780;DHT22;373;49.342;8.146;2022-10-23T05:00:05;15.40;99.90
780;DHT22;373;49.342;8.146;2022-10-23T05:02:39;15.30;99.90
780;DHT22;373;49.342;8.146;2022-10-23T05:05:07;15.20;99.90
780;DHT22;373;49.342;8.146;2022-10-23T05:07:35;15.30;99.90
780;DHT22;373;49.342;8.146;2022-10-23T05:10:10;15.30;99.90
780;DHT22;373;49.342;8.146;2022-10-23T05:12:44;15.20;99.90
780;DHT22;373;49.342;8.146;2022-10-23T05:15:12;15.00;99.90
780;DHT22;373;49.342;8.146;2022-10-23T05:17:41;15.10;99.90
780;DHT22;373;49.342;8.146;2022-10-23T05:20:12;15.10;99.90
780;DHT22;373;49.342;8.146;2022-10-23T05:22:42;15.20;99.90
780;DHT22;373;49.342;8.146;2022-10-23T05:25:11;15.50;99.90
780;DHT22;373;49.342;8.146;2022-10-23T05:27:43;15.30;99.90
780;DHT22;373;49.342;8.146;2022-10-23T05:30:14;15.20;99.90
780;DHT22;373;49.342;8.146;2022-10-23T05:32:41;15.00;99.90
780;DHT22;373;49.342;8.146;2022-10-23T05:35:11;14.90;99.90
780;DHT22;373;49.342;8.146;2022-10-23T05:37:46;15.10;99.90
780;DHT22;373;49.342;8.146;2022-10-23T05:40:19;15.10;99.90
780;DHT22;373;49.342;8.146;2022-10-23T05:42:48;14.90;99.90
780;DHT22;373;49.342;8.146;2022-10-23T05:45:21;15.10;99.90
780;DHT22;373;49.342;8.146;2022-10-23T05:48:06;15.00;99.90
780;DHT22;373;49.342;8.146;2022-10-23T05:51:01;15.00;99.90
780;DHT22;373;49.342;8.146;2022-10-23T05:53:54;15.00;99.90
780;DHT22;373;49.342;8.146;2022-10-23T05:56:54;15.20;99.90
780;DHT22;373;49.342;8.146;2022-10-23T05:59:30;15.30;99.90
780;DHT22;373;49.342;8.146;2022-10-23T06:02:01;14.90;99.90
780;DHT22;373;49.342;8.146;2022-10-23T06:04:43;15.00;99.90
780;DHT22;373;49.342;8.146;2022-10-23T06:07:28;15.20;99.90
780;DHT22;373;49.342;8.146;2022-10-23T06:09:58;15.30;99.90
780;DHT22;373;49.342;8.146;2022-10-23T06:12:25;15.40;99.90
780;DHT22;373;49.342;8.146;2022-10-23T06:14:52;15.40;99.90
780;DHT22;373;49.342;8.146;2022-10-23T06:17:28;15.20;99.90
780;DHT22;373;49.342;8.146;2022-10-23T06:19:55;15.30;99.90
780;DHT22;373;49.342;8.146;2022-10-23T06:22:26;15.10;99.90
780;DHT22;373;49.342;8.146;2022-10-23T06:25:04;15.30;99.90
780;DHT22;373;49.342;8.146;2022-10-23T06:27:31;15.10;99.90
780;DHT22;373;49.342;8.146;2022-10-23T06:30:03;15.20;99.90
780;DHT22;373;49.342;8.146;2022-10-23T06:32:33;14.90;99.90
780;DHT22;373;49.342;8.146;2022-10-23T06:35:09;15.00;99.90
780;DHT22;373;49.342;8.146;2022-10-23T06:37:37;14.90;99.90
780;DHT22;373;49.342;8.146;2022-10-23T06:40:09;14.90;99.90
780;DHT22;373;49.342;8.146;2022-10-23T06:42:54;15.10;99.90
780;DHT22;373;49.342;8.146;2022-10-23T06:45:27;15.00;99.90
780;DHT22;373;49.342;8.146;2022-10-23T06:48:19;15.20;99.90
780;DHT22;373;49.342;8.146;2022-10-23T06:51:04;15.70;99.90
780;DHT22;373;49.342;8.146;2022-10-23T06:53:40;16.00;99.90
780;DHT22;373;49.342;8.146;2022-10-23T06:56:23;16.20;99.90
780;DHT22;373;49.342;8.146;2022-10-23T06:58:54;16.60;99.90
780;DHT22;373;49.342;8.146;2022-10-23T07:01:21;16.70;99.90
780;DHT22;373;49.342;8.146;2022-10-23T07:03:50;17.20;99.90
780;DHT22;373;49.342;8.146;2022-10-23T07:06:23;17.50;99.90
780;DHT22;373;49.342;8.146;2022-10-23T07:08:50;17.60;99.90
780;DHT22;373;49.342;8.146;2022-10-23T07:11:36;17.50;99.90
780;DHT22;373;49.342;8.146;2022-10-23T07:14:03;17.50;99.90
780;DHT22;373;49.342;8.146;2022-10-23T07:16:31;17.60;99.90
780;DHT22;373;49.342;8.146;2022-10-23T07:19:00;17.80;99.90
780;DHT22;373;49.342;8.146;2022-10-23T07:21:28;17.90;99.90
780;DHT22;373;49.342;8.146;2022-10-23T07:24:08;17.90;99.90
780;DHT22;373;49.342;8.146;2022-10-23T07:26:38;18.10;99.90
780;DHT22;373;49.342;8.146;2022-10-23T07:29:06;17.90;99.90
780;DHT22;373;49.342;8.146;2022-10-23T07:31:33;17.90;99.90
780;DHT22;373;49.342;8.146;2022-10-23T07:34:34;17.90;99.90
780;DHT22;373;49.342;8.146;2022-10-23T07:37:25;17.90;99.90
780;DHT22;373;49.342;8.146;2022-10-23T07:39:56;17.90;99.90
780;DHT22;373;49.342;8.146;2022-10-23T07:42:24;17.90;99.90
780;DHT22;373;49.342;8.146;2022-10-23T07:44:51;18.10;99.90
780;DHT22;373;49.342;8.146;2022-10-23T07:47:19;18.10;99.90
780;DHT22;373;49.342;8.146;2022-10-23T07:49:50;18.30;99.90
780;DHT22;373;49.342;8.146;2022-10-23T07:52:19;18.40;99.90
780;DHT22;373;49.342;8.146;2022-10-23T07:55:06;18.50;99.90
780;DHT22;373;49.342;8.146;2022-10-23T07:57:37;18.60;99.90
780;DHT22;373;49.342;8.146;2022-10-23T08:00:38;18.70;99.90
780;DHT22;373;49.342;8.146;2022-10-23T08:03:14;18.60;99.90
780;DHT22;373;49.342;8.146;2022-10-23T08:05:42;19.30;99.90
780;DHT22;373;49.342;8.146;2022-10-23T08:08:10;20.20;99.20
780;DHT22;373;49.342;8.146;2022-10-23T08:10:39;20.50;98.70
780;DHT22;373;49.342;8.146;2022-10-23T08:13:11;21.00;96.30
780;DHT22;373;49.342;8.146;2022-10-23T08:15:56;21.50;96.20
780;DHT22;373;49.342;8.146;2022-10-23T08:18:51;21.70;94.30
780;DHT22;373;49.342;8.146;2022-10-23T08:21:20;20.90;94.70
780;DHT22;373;49.342;8.146;2022-10-23T08:23:48;19.40;98.10
780;DHT22;373;49.342;8.146;2022-10-23T08:26:15;18.30;99.90
780;DHT22;373;49.342;8.146;2022-10-23T08:28:42;17.70;99.90
780;DHT22;373;49.342;8.146;2022-10-23T08:31:11;17.00;99.90
780;DHT22;373;49.342;8.146;2022-10-23T08:33:47;16.70;99.90
780;DHT22;373;49.342;8.146;2022-10-23T08:36:17;16.40;99.90
780;DHT22;373;49.342;8.146;2022-10-23T08:38:46;16.50;99.90
780;DHT22;373;49.342;8.146;2022-10-23T08:41:23;17.00;99.90
780;DHT22;373;49.342;8.146;2022-10-23T08:44:00;17.20;99.90
780;DHT22;373;49.342;8.146;2022-10-23T08:46:40;17.60;99.90
780;DHT22;373;49.342;8.146;2022-10-23T08:49:38;18.20;99.90
780;DHT22;373;49.342;8.146;2022-10-23T08:52:13;18.50;99.90
780;DHT22;373;49.342;8.146;2022-10-23T08:54:55;19.00;99.90
780;DHT22;373;49.342;8.146;2022-10-23T08:57:26;18.80;99.90
780;DHT22;373;49.342;8.146;2022-10-23T09:00:00;19.70;99.90
780;DHT22;373;49.342;8.146;2022-10-23T09:02:30;20.60;98.40
780;DHT22;373;49.342;8.146;2022-10-23T09:04:59;20.60;98.90
780;DHT22;373;49.342;8.146;2022-10-23T09:07:36;20.50;98.50
780;DHT22;373;49.342;8.146;2022-10-23T09:10:27;21.30;96.40
780;DHT22;373;49.342;8.146;2022-10-23T09:13:10;21.20;96.70
780;DHT22;373;49.342;8.146;2022-10-23T09:15:44;21.20;96.60
780;DHT22;373;49.342;8.146;2022-10-23T09:18:14;21.50;95.00
780;DHT22;373;49.342;8.146;2022-10-23T09:20:44;21.70;94.80
780;DHT22;373;49.342;8.146;2022-10-23T09:23:16;21.50;95.30
780;DHT22;373;49.342;8.146;2022-10-23T09:25:46;20.20;97.70
780;DHT22;373;49.342;8.146;2022-10-23T09:28:17;20.60;97.60
780;DHT22;373;49.342;8.146;2022-10-23T09:30:47;20.20;98.50
780;DHT22;373;49.342;8.146;2022-10-23T09:33:16;20.30;99.20
780;DHT22;373;49.342;8.146;2022-10-23T09:35:55;21.50;97.30
780;DHT22;373;49.342;8.146;2022-10-23T09:38:28;22.30;94.70
780;DHT22;373;49.342;8.146;2022-10-23T09:41:00;23.10;93.80
780;DHT22;373;49.342;8.146;2022-10-23T09:43:28;23.70;92.40
780;DHT22;373;49.342;8.146;2022-10-23T09:46:03;23.60;91.80
780;DHT22;373;49.342;8.146;2022-10-23T09:48:33;23.10;92.30
780;DHT22;373;49.342;8.146;2022-10-23T09:51:01;22.00;93.70
780;DHT22;373;49.342;8.146;2022-10-23T09:53:32;20.70;97.10
780;DHT22;373;49.342;8.146;2022-10-23T09:56:03;20.20;99.50
780;DHT22;373;49.342;8.146;2022-10-23T09:58:35;20.20;99.90
780;DHT22;373;49.342;8.146;2022-10-23T10:01:03;19.90;99.90
780;DHT22;373;49.342;8.146;2022-10-23T10:03:47;19.50;99.90
780;DHT22;373;49.342;8.146;2022-10-23T10:06:21;19.10;99.90
780;DHT22;373;49.342;8.146;2022-10-23T10:08:51;19.00;99.90
780;DHT22;373;49.342;8.146;2022-10-23T10:11:24;19.40;99.90
780;DHT22;373;49.342;8.146;2022-10-23T10:14:00;19.80;99.90
780;DHT22;373;49.342;8.146;2022-10-23T10:16:41;20.50;99.90
780;DHT22;373;49.342;8.146;2022-10-23T10:19:18;19.90;99.90
780;DHT22;373;49.342;8.146;2022-10-23T10:21:51;19.50;99.90
780;DHT22;373;49.342;8.146;2022-10-23T10:24:28;19.20;99.90
780;DHT22;373;49.342;8.146;2022-10-23T10:27:02;19.00;99.90
780;DHT22;373;49.342;8.146;2022-10-23T10:29:45;19.00;99.90
780;DHT22;373;49.342;8.146;2022-10-23T10:32:26;19.40;99.90
780;DHT22;373;49.342;8.146;2022-10-23T10:35:04;19.60;99.90
780;DHT22;373;49.342;8.146;2022-10-23T10:37:42;20.70;99.90
780;DHT22;373;49.342;8.146;2022-10-23T10:40:18;21.60;99.90
780;DHT22;373;49.342;8.146;2022-10-23T10:43:01;22.60;95.80
780;DHT22;373;49.342;8.146;2022-10-23T10:45:36;22.80;95.50
780;DHT22;373;49.342;8.146;2022-10-23T10:48:24;23.10;94.40
780;DHT22;373;49.342;8.146;2022-10-23T10:51:22;22.40;94.80
780;DHT22;373;49.342;8.146;2022-10-23T10:54:07;22.30;96.20
780;DHT22;373;49.342;8.146;2022-10-23T10:56:38;22.00;96.30
780;DHT22;373;49.342;8.146;2022-10-23T10:59:15;21.50;97.40
780;DHT22;373;49.342;8.146;2022-10-23T11:01:45;20.80;98.80
780;DHT22;373;49.342;8.146;2022-10-23T11:04:23;20.10;99.90
780;DHT22;373;49.342;8.146;2022-10-23T11:06:54;20.00;99.90
780;DHT22;373;49.342;8.146;2022-10-23T11:09:26;20.20;99.90
780;DHT22;373;49.342;8.146;2022-10-23T11:11:54;20.40;99.90
780;DHT22;373;49.342;8.146;2022-10-23T11:14:24;20.70;99.90
780;DHT22;373;49.342;8.146;2022-10-23T11:16:55;21.10;99.90
780;DHT22;373;49.342;8.146;2022-10-23T11:19:25;22.30;97.50
780;DHT22;373;49.342;8.146;2022-10-23T11:21:57;24.60;92.90
780;DHT22;373;49.342;8.146;2022-10-23T11:24:57;25.00;91.00
780;DHT22;373;49.342;8.146;2022-10-23T11:27:36;25.00;91.30
780;DHT22;373;49.342;8.146;2022-10-23T11:30:20;25.60;90.40
780;DHT22;373;49.342;8.146;2022-10-23T11:33:04;24.80;90.00
780;DHT22;373;49.342;8.146;2022-10-23T11:35:50;24.50;91.10
780;DHT22;373;49.342;8.146;2022-10-23T11:38:23;23.40;91.70
780;DHT22;373;49.342;8.146;2022-10-23T11:40:55;23.40;92.90
780;DHT22;373;49.342;8.146;2022-10-23T11:43:27;23.20;92.30
780;DHT22;373;49.342;8.146;2022-10-23T11:45:57;23.10;93.30
780;DHT22;373;49.342;8.146;2022-10-23T11:48:36;23.40;92.30
780;DHT22;373;49.342;8.146;2022-10-23T11:51:05;22.90;93.60
780;DHT22;373;49.342;8.146;2022-10-23T11:53:51;22.60;93.20
780;DHT22;373;49.342;8.146;2022-10-23T11:56:26;22.60;94.30
780;DHT22;373;49.342;8.146;2022-10-23T11:58:57;22.40;95.10
780;DHT22;373;49.342;8.146;2022-10-23T12:01:35;22.20;94.40
780;DHT22;373;49.342;8.146;2022-10-23T12:04:12;22.20;95.00
780;DHT22;373;49.342;8.146;2022-10-23T12:06:44;22.30;94.70
780;DHT22;373;49.342;8.146;2022-10-23T12:09:30;22.60;95.20
780;DHT22;373;49.342;8.146;2022-10-23T12:12:24;22.40;94.70
780;DHT22;373;49.342;8.146;2022-10-23T12:14:53;22.20;95.00
780;DHT22;373;49.342;8.146;2022-10-23T12:17:37;21.90;95.50
780;DHT22;373;49.342;8.146;2022-10-23T12:20:35;21.60;95.60
780;DHT22;373;49.342;8.146;2022-10-23T12:23:22;21.40;96.80
780;DHT22;373;49.342;8.146;2022-10-23T12:26:22;21.40;97.90
780;DHT22;373;49.342;8.146;2022-10-23T12:28:58;21.20;97.30
780;DHT22;373;49.342;8.146;2022-10-23T12:31:38;21.20;98.10
780;DHT22;373;49.342;8.146;2022-10-23T12:34:17;21.20;97.90
780;DHT22;373;49.342;8.146;2022-10-23T12:37:04;21.00;99.00
780;DHT22;373;49.342;8.146;2022-10-23T12:39:33;21.10;99.20
780;DHT22;373;49.342;8.146;2022-10-23T12:42:03;21.30;98.00
780;DHT22;373;49.342;8.146;2022-10-23T12:44:30;21.30;98.30
780;DHT22;373;49.342;8.146;2022-10-23T12:47:00;21.10;98.10
780;DHT22;373;49.342;8.146;2022-10-23T12:49:30;20.60;99.40
780;DHT22;373;49.342;8.146;2022-10-23T12:52:00;20.50;99.90
780;DHT22;373;49.342;8.146;2022-10-23T12:54:31;20.90;99.90
780;DHT22;373;49.342;8.146;2022-10-23T12:56:58;20.80;99.40
780;DHT22;373;49.342;8.146;2022-10-23T12:59:29;21.00;99.00
780;DHT22;373;49.342;8.146;2022-10-23T13:01:59;21.20;98.60
780;DHT22;373;49.342;8.146;2022-10-23T13:04:31;21.10;98.50
780;DHT22;373;49.342;8.146;2022-10-23T13:07:00;21.60;97.90
780;DHT22;373;49.342;8.146;2022-10-23T13:09:33;21.50;97.70
780;DHT22;373;49.342;8.146;2022-10-23T13:12:18;21.60;97.20
780;DHT22;373;49.342;8.146;2022-10-23T13:14:56;21.70;97.40
780;DHT22;373;49.342;8.146;2022-10-23T13:17:35;21.70;97.10
780;DHT22;373;49.342;8.146;2022-10-23T13:20:26;21.20;97.40
780;DHT22;373;49.342;8.146;2022-10-23T13:23:07;20.90;97.30
780;DHT22;373;49.342;8.146;2022-10-23T13:25:36;20.90;97.40
780;DHT22;373;49.342;8.146;2022-10-23T13:28:12;20.90;98.10
780;DHT22;373;49.342;8.146;2022-10-23T13:30:42;21.00;98.70
780;DHT22;373;49.342;8.146;2022-10-23T13:33:20;20.90;99.90
780;DHT22;373;49.342;8.146;2022-10-23T13:35:55;21.00;99.60
780;DHT22;373;49.342;8.146;2022-10-23T13:38:30;20.90;99.70
780;DHT22;373;49.342;8.146;2022-10-23T13:40:59;21.00;99.40
780;DHT22;373;49.342;8.146;2022-10-23T13:43:26;21.10;99.50
780;DHT22;373;49.342;8.146;2022-10-23T13:45:56;21.00;99.90
780;DHT22;373;49.342;8.146;2022-10-23T13:48:23;21.10;99.50
780;DHT22;373;49.342;8.146;2022-10-23T13:50:50;21.00;99.90
780;DHT22;373;49.342;8.146;2022-10-23T13:53:19;21.00;99.90
780;DHT22;373;49.342;8.146;2022-10-23T13:55:50;20.90;99.30
780;DHT22;373;49.342;8.146;2022-10-23T13:58:18;20.80;99.90
780;DHT22;373;49.342;8.146;2022-10-23T14:00:46;20.80;99.70
780;DHT22;373;49.342;8.146;2022-10-23T14:03:15;20.80;99.90
780;DHT22;373;49.342;8.146;2022-10-23T14:05:47;20.90;99.90
780;DHT22;373;49.342;8.146;2022-10-23T14:08:14;20.80;99.90
780;DHT22;373;49.342;8.146;2022-10-23T14:10:43;21.10;99.90
780;DHT22;373;49.342;8.146;2022-10-23T14:13:11;21.20;99.60
780;DHT22;373;49.342;8.146;2022-10-23T14:15:38;21.20;98.90
780;DHT22;373;49.342;8.146;2022-10-23T14:18:08;21.20;99.30
780;DHT22;373;49.342;8.146;2022-10-23T14:20:37;21.00;99.60
780;DHT22;373;49.342;8.146;2022-10-23T14:23:04;21.20;99.80
780;DHT22;373;49.342;8.146;2022-10-23T14:25:31;21.20;99.90
780;DHT22;373;49.342;8.146;2022-10-23T14:28:00;20.90;99.90
780;DHT22;373;49.342;8.146;2022-10-23T14:30:27;20.90;99.90
780;DHT22;373;49.342;8.146;2022-10-23T14:32:54;20.90;99.90
780;DHT22;373;49.342;8.146;2022-10-23T14:35:22;20.90;99.90
780;DHT22;373;49.342;8.146;2022-10-23T14:37:50;20.90;99.90
780;DHT22;373;49.342;8.146;2022-10-23T14:40:17;20.80;99.90
780;DHT22;373;49.342;8.146;2022-10-23T14:42:46;20.70;99.90
780;DHT22;373;49.342;8.146;2022-10-23T14:45:15;20.70;99.90
780;DHT22;373;49.342;8.146;2022-10-23T14:47:42;20.50;99.90
780;DHT22;373;49.342;8.146;2022-10-23T14:50:10;20.40;99.90
780;DHT22;373;49.342;8.146;2022-10-23T14:52:38;20.30;99.90
780;DHT22;373;49.342;8.146;2022-10-23T14:55:06;20.20;99.90
780;DHT22;373;49.342;8.146;2022-10-23T14:57:33;19.90;99.90
780;DHT22;373;49.342;8.146;2022-10-23T15:00:00;19.90;99.90
780;DHT22;373;49.342;8.146;2022-10-23T15:02:29;20.10;99.90
780;DHT22;373;49.342;8.146;2022-10-23T15:04:56;20.00;99.90
780;DHT22;373;49.342;8.146;2022-10-23T15:07:24;19.90;99.90
780;DHT22;373;49.342;8.146;2022-10-23T15:09:51;19.80;99.90
780;DHT22;373;49.342;8.146;2022-10-23T15:12:18;19.80;99.90
780;DHT22;373;49.342;8.146;2022-10-23T15:15:28;19.70;99.90
780;DHT22;373;49.342;8.146;2022-10-23T15:17:57;19.80;99.90
780;DHT22;373;49.342;8.146;2022-10-23T15:20:24;19.80;99.90
780;DHT22;373;49.342;8.146;2022-10-23T15:22:51;19.90;99.90
780;DHT22;373;49.342;8.146;2022-10-23T15:25:18;19.90;99.90
780;DHT22;373;49.342;8.146;2022-10-23T15:27:46;20.20;99.90
780;DHT22;373;49.342;8.146;2022-10-23T15:30:13;20.50;99.90
780;DHT22;373;49.342;8.146;2022-10-23T15:32:41;20.60;99.90
780;DHT22;373;49.342;8.146;2022-10-23T15:35:10;20.60;99.90
780;DHT22;373;49.342;8.146;2022-10-23T15:37:38;20.60;99.90
780;DHT22;373;49.342;8.146;2022-10-23T15:40:09;20.60;99.90
780;DHT22;373;49.342;8.146;2022-10-23T15:42:36;20.70;99.90
780;DHT22;373;49.342;8.146;2022-10-23T15:45:05;20.70;99.90
780;DHT22;373;49.342;8.146;2022-10-23T15:47:32;20.60;99.90
780;DHT22;373;49.342;8.146;2022-10-23T15:49:59;20.80;99.90
780;DHT22;373;49.342;8.146;2022-10-23T15:52:28;20.80;99.90
780;DHT22;373;49.342;8.146;2022-10-23T15:54:55;20.90;99.90
780;DHT22;373;49.342;8.146;2022-10-23T15:57:23;21.00;99.90
780;DHT22;373;49.342;8.146;2022-10-23T15:59:51;21.10;99.90
780;DHT22;373;49.342;8.146;2022-10-23T16:02:19;21.00;99.90
780;DHT22;373;49.342;8.146;2022-10-23T16:04:47;21.20;99.90
780;DHT22;373;49.342;8.146;2022-10-23T16:07:14;21.20;99.90
780;DHT22;373;49.342;8.146;2022-10-23T16:09:43;21.30;99.90
780;DHT22;373;49.342;8.146;2022-10-23T16:12:10;21.30;99.90
780;DHT22;373;49.342;8.146;2022-10-23T16:14:38;21.30;99.90
780;DHT22;373;49.342;8.146;2022-10-23T16:17:05;21.30;99.90
780;DHT22;373;49.342;8.146;2022-10-23T16:19:33;21.60;99.30
780;DHT22;373;49.342;8.146;2022-10-23T16:22:01;21.50;99.30
780;DHT22;373;49.342;8.146;2022-10-23T16:24:29;21.40;99.90
780;DHT22;373;49.342;8.146;2022-10-23T16:26:58;21.20;99.90
780;DHT22;373;49.342;8.146;2022-10-23T16:29:26;21.10;99.90
780;DHT22;373;49.342;8.146;2022-10-23T16:31:55;21.00;99.90
780;DHT22;373;49.342;8.146;2022-10-23T16:34:24;20.90;99.90
780;DHT22;373;49.342;8.146;2022-10-23T16:36:52;20.80;99.90
780;DHT22;373;49.342;8.146;2022-10-23T16:39:20;20.90;99.90
780;DHT22;373;49.342;8.146;2022-10-23T16:42:07;21.00;99.90
780;DHT22;373;49.342;8.146;2022-10-23T16:44:59;20.80;99.90
780;DHT22;373;49.342;8.146;2022-10-23T16:47:26;20.70;99.90
780;DHT22;373;49.342;8.146;2022-10-23T16:49:56;20.70;99.90
780;DHT22;373;49.342;8.146;2022-10-23T16:52:23;20.60;99.90
780;DHT22;373;49.342;8.146;2022-10-23T16:54:51;20.40;99.90
780;DHT22;373;49.342;8.146;2022-10-23T16:57:19;20.30;99.90
780;DHT22;373;49.342;8.146;2022-10-23T16:59:46;20.30;99.90
780;DHT22;373;49.342;8.146;2022-10-23T17:02:13;20.40;99.90
780;DHT22;373;49.342;8.146;2022-10-23T17:04:41;20.60;99.90
780;DHT22;373;49.342;8.146;2022-10-23T17:07:08;20.70;99.90
780;DHT22;373;49.342;8.146;2022-10-23T17:09:37;20.70;99.90
780;DHT22;373;49.342;8.146;2022-10-23T17:12:05;20.70;99.80
780;DHT22;373;49.342;8.146;2022-10-23T17:14:34;20.80;99.30
780;DHT22;373;49.342;8.146;2022-10-23T17:17:03;20.70;99.90
780;DHT22;373;49.342;8.146;2022-10-23T17:19:32;20.60;99.90
780;DHT22;373;49.342;8.146;2022-10-23T17:21:59;20.60;99.90
780;DHT22;373;49.342;8.146;2022-10-23T17:24:26;20.50;99.90
780;DHT22;373;49.342;8.146;2022-10-23T17:26:53;20.50;99.90
780;DHT22;373;49.342;8.146;2022-10-23T17:29:20;20.30;99.90
780;DHT22;373;49.342;8.146;2022-10-23T17:31:49;20.10;99.90
780;DHT22;373;49.342;8.146;2022-10-23T17:34:19;19.90;99.90
780;DHT22;373;49.342;8.146;2022-10-23T17:36:48;19.60;99.90
780;DHT22;373;49.342;8.146;2022-10-23T17:39:18;19.40;99.90
780;DHT22;373;49.342;8.146;2022-10-23T17:41:45;19.30;99.90
780;DHT22;373;49.342;8.146;2022-10-23T17:44:13;19.20;99.90
780;DHT22;373;49.342;8.146;2022-10-23T17:46:40;19.00;99.90
780;DHT22;373;49.342;8.146;2022-10-23T17:49:10;18.80;99.90
780;DHT22;373;49.342;8.146;2022-10-23T17:51:37;18.70;99.90
780;DHT22;373;49.342;8.146;2022-10-23T17:54:07;18.60;99.90
780;DHT22;373;49.342;8.146;2022-10-23T17:56:35;18.60;99.90
780;DHT22;373;49.342;8.146;2022-10-23T17:59:05;18.60;99.90
780;DHT22;373;49.342;8.146;2022-10-23T18:01:32;18.50;99.90
780;DHT22;373;49.342;8.146;2022-10-23T18:04:01;18.60;99.90
780;DHT22;373;49.342;8.146;2022-10-23T18:06:32;18.60;99.90
780;DHT22;373;49.342;8.146;2022-10-23T18:09:00;18.70;99.90
780;DHT22;373;49.342;8.146;2022-10-23T18:11:30;18.70;99.90
780;DHT22;373;49.342;8.146;2022-10-23T18:13:58;18.70;99.90
780;DHT22;373;49.342;8.146;2022-10-23T18:16:26;18.70;99.90
780;DHT22;373;49.342;8.146;2022-10-23T18:18:53;18.60;99.90
780;DHT22;373;49.342;8.146;2022-10-23T18:21:22;18.50;99.90
780;DHT22;373;49.342;8.146;2022-10-23T18:23:51;18.20;99.90
780;DHT22;373;49.342;8.146;2022-10-23T18:26:20;18.10;99.90
780;DHT22;373;49.342;8.146;2022-10-23T18:28:49;17.90;99.90
780;DHT22;373;49.342;8.146;2022-10-23T18:31:17;17.80;99.90
780;DHT22;373;49.342;8.146;2022-10-23T18:33:45;17.60;99.90
780;DHT22;373;49.342;8.146;2022-10-23T18:36:14;17.50;99.90